sensor_id;sensor_type;location;lat;lon;timestamp;P1;durP1;ratioP1;P2;durP2;ratioP2
47758;SDS011;33520;55.122;35.582;2023-09-18T00:01:01;2.88;;;2.03;;
47758;SDS011;33520;55.122;35.582;2023-09-18T00:03:27;4.85;;;3.00;;
47758;SDS011;33520;55.122;35.582;2023-09-18T00:05:53;3.67;;;3.03;;
47758;SDS011;33520;55.122;35.582;2023-09-18T00:08:20;6.88;;;3.70;;
47758;SDS011;33520;55.122;35.582;2023-09-18T00:10:47;5.57;;;3.08;;
47758;SDS011;33520;55.122;35.582;2023-09-18T00:13:16;5.47;;;3.38;;
47758;SDS011;33520;55.122;35.582;2023-09-18T00:18:10;4.88;;;2.90;;
47758;SDS011;33520;55.122;35.582;2023-09-18T00:20:36;4.28;;;2.53;;
47758;SDS011;33520;55.122;35.582;2023-09-18T00:23:03;3.30;;;2.22;;
47758;SDS011;33520;55.122;35.582;2023-09-18T00:25:29;8.13;;;2.92;;
47758;SDS011;33520;55.122;35.582;2023-09-18T00:27:56;4.35;;;3.10;;
47758;SDS011;33520;55.122;35.582;2023-09-18T00:30:22;5.75;;;3.15;;
47758;SDS011;33520;55.122;35.582;2023-09-18T00:32:50;6.55;;;3.53;;
47758;SDS011;33520;55.122;35.582;2023-09-18T00:35:16;5.50;;;3.50;;
47758;SDS011;33520;55.122;35.582;2023-09-18T00:37:43;5.68;;;3.10;;
47758;SDS011;33520;55.122;35.582;2023-09-18T00:40:09;4.97;;;2.50;;
47758;SDS011;33520;55.122;35.582;2023-09-18T00:42:36;3.80;;;2.40;;
47758;SDS011;33520;55.122;35.582;2023-09-18T00:45:03;4.15;;;2.05;;
47758;SDS011;33520;55.122;35.582;2023-09-18T00:47:29;5.80;;;2.30;;
47758;SDS011;33520;55.122;35.582;2023-09-18T00:49:56;5.15;;;3.30;;
47758;SDS011;33520;55.122;35.582;2023-09-18T00:52:22;8.70;;;3.75;;
47758;SDS011;33520;55.122;35.582;2023-09-18T00:54:50;6.40;;;3.50;;
47758;SDS011;33520;55.122;35.582;2023-09-18T00:57:16;7.78;;;3.80;;
47758;SDS011;33520;55.122;35.582;2023-09-18T00:59:43;6.53;;;3.50;;
47758;SDS011;33520;55.122;35.582;2023-09-18T01:02:10;5.97;;;4.13;;
47758;SDS011;33520;55.122;35.582;2023-09-18T01:04:37;7.65;;;4.30;;
47758;SDS011;33520;55.122;35.582;2023-09-18T01:07:04;6.95;;;3.45;;
47758;SDS011;33520;55.122;35.582;2023-09-18T01:09:30;8.73;;;3.40;;
47758;SDS011;33520;55.122;35.582;2023-09-18T01:14:41;8.38;;;3.70;;
47758;SDS011;33520;55.122;35.582;2023-09-18T01:17:11;7.43;;;3.65;;
47758;SDS011;33520;55.122;35.582;2023-09-18T01:19:40;6.03;;;3.95;;
47758;SDS011;33520;55.122;35.582;2023-09-18T01:22:09;10.63;;;3.75;;
47758;SDS011;33520;55.122;35.582;2023-09-18T01:24:36;5.70;;;3.50;;
47758;SDS011;33520;55.122;35.582;2023-09-18T01:27:03;3.92;;;2.58;;
47758;SDS011;33520;55.122;35.582;2023-09-18T01:29:33;5.55;;;2.60;;
47758;SDS011;33520;55.122;35.582;2023-09-18T01:31:59;5.28;;;2.28;;
47758;SDS011;33520;55.122;35.582;2023-09-18T01:34:28;5.68;;;3.08;;
47758;SDS011;33520;55.122;35.582;2023-09-18T01:36:59;7.15;;;2.28;;
47758;SDS011;33520;55.122;35.582;2023-09-18T01:39:26;3.90;;;2.28;;
47758;SDS011;33520;55.122;35.582;2023-09-18T01:42:00;6.18;;;2.90;;
47758;SDS011;33520;55.122;35.582;2023-09-18T01:44:28;5.30;;;2.50;;
47758;SDS011;33520;55.122;35.582;2023-09-18T01:46:56;5.50;;;3.20;;
47758;SDS011;33520;55.122;35.582;2023-09-18T01:49:32;6.38;;;3.42;;
47758;SDS011;33520;55.122;35.582;2023-09-18T01:52:00;6.10;;;3.30;;
47758;SDS011;33520;55.122;35.582;2023-09-18T01:54:27;5.78;;;3.33;;
47758;SDS011;33520;55.122;35.582;2023-09-18T01:56:53;7.88;;;4.20;;
47758;SDS011;33520;55.122;35.582;2023-09-18T01:59:20;8.05;;;3.80;;
47758;SDS011;33520;55.122;35.582;2023-09-18T02:01:47;5.47;;;3.63;;
47758;SDS011;33520;55.122;35.582;2023-09-18T02:04:14;7.90;;;3.53;;
47758;SDS011;33520;55.122;35.582;2023-09-18T02:09:07;6.25;;;3.72;;
47758;SDS011;33520;55.122;35.582;2023-09-18T02:11:41;7.50;;;3.30;;
47758;SDS011;33520;55.122;35.582;2023-09-18T02:14:09;4.15;;;2.85;;
47758;SDS011;33520;55.122;35.582;2023-09-18T02:16:37;4.30;;;2.78;;
47758;SDS011;33520;55.122;35.582;2023-09-18T02:19:07;4.70;;;3.25;;
47758;SDS011;33520;55.122;35.582;2023-09-18T02:21:34;6.30;;;3.03;;
47758;SDS011;33520;55.122;35.582;2023-09-18T02:24:01;4.70;;;2.33;;
47758;SDS011;33520;55.122;35.582;2023-09-18T02:26:28;5.75;;;2.67;;
47758;SDS011;33520;55.122;35.582;2023-09-18T02:28:54;5.20;;;2.88;;
47758;SDS011;33520;55.122;35.582;2023-09-18T02:31:24;6.07;;;2.90;;
47758;SDS011;33520;55.122;35.582;2023-09-18T02:33:51;11.88;;;3.00;;
47758;SDS011;33520;55.122;35.582;2023-09-18T02:36:17;6.82;;;3.45;;
47758;SDS011;33520;55.122;35.582;2023-09-18T02:38:43;4.25;;;2.75;;
47758;SDS011;33520;55.122;35.582;2023-09-18T02:43:36;5.50;;;3.40;;
47758;SDS011;33520;55.122;35.582;2023-09-18T02:46:06;4.40;;;2.97;;
47758;SDS011;33520;55.122;35.582;2023-09-18T02:48:33;2.85;;;2.13;;
47758;SDS011;33520;55.122;35.582;2023-09-18T02:51:00;3.22;;;2.10;;
47758;SDS011;33520;55.122;35.582;2023-09-18T02:53:26;14.07;;;2.80;;
47758;SDS011;33520;55.122;35.582;2023-09-18T02:55:56;6.28;;;3.33;;
47758;SDS011;33520;55.122;35.582;2023-09-18T02:58:23;5.28;;;3.28;;
47758;SDS011;33520;55.122;35.582;2023-09-18T03:00:52;12.75;;;3.80;;
47758;SDS011;33520;55.122;35.582;2023-09-18T03:03:27;5.13;;;2.65;;
47758;SDS011;33520;55.122;35.582;2023-09-18T03:05:59;4.63;;;2.67;;
47758;SDS011;33520;55.122;35.582;2023-09-18T03:08:28;26.98;;;2.58;;
47758;SDS011;33520;55.122;35.582;2023-09-18T03:10:56;29.17;;;2.20;;
47758;SDS011;33520;55.122;35.582;2023-09-18T03:13:23;31.73;;;2.30;;
47758;SDS011;33520;55.122;35.582;2023-09-18T03:15:50;22.92;;;1.90;;
47758;SDS011;33520;55.122;35.582;2023-09-18T03:20:42;20.70;;;2.38;;
47758;SDS011;33520;55.122;35.582;2023-09-18T03:25:35;2.80;;;2.13;;
47758;SDS011;33520;55.122;35.582;2023-09-18T03:28:03;4.43;;;1.73;;
47758;SDS011;33520;55.122;35.582;2023-09-18T03:30:32;2.47;;;1.65;;
47758;SDS011;33520;55.122;35.582;2023-09-18T03:32:59;2.20;;;1.42;;
47758;SDS011;33520;55.122;35.582;2023-09-18T03:35:28;2.67;;;1.80;;
47758;SDS011;33520;55.122;35.582;2023-09-18T03:37:55;6.78;;;1.90;;
47758;SDS011;33520;55.122;35.582;2023-09-18T03:40:21;3.67;;;1.88;;
47758;SDS011;33520;55.122;35.582;2023-09-18T03:42:48;5.07;;;2.22;;
47758;SDS011;33520;55.122;35.582;2023-09-18T03:45:15;12.65;;;3.83;;
47758;SDS011;33520;55.122;35.582;2023-09-18T03:47:46;73.63;;;5.63;;
47758;SDS011;33520;55.122;35.582;2023-09-18T03:50:13;8.75;;;2.50;;
47758;SDS011;33520;55.122;35.582;2023-09-18T03:52:39;21.60;;;2.70;;
47758;SDS011;33520;55.122;35.582;2023-09-18T03:55:07;5.57;;;1.95;;
47758;SDS011;33520;55.122;35.582;2023-09-18T03:57:34;5.95;;;1.92;;
47758;SDS011;33520;55.122;35.582;2023-09-18T04:00:01;6.50;;;1.50;;
47758;SDS011;33520;55.122;35.582;2023-09-18T04:02:38;7.30;;;1.33;;
47758;SDS011;33520;55.122;35.582;2023-09-18T04:07:34;3.88;;;1.00;;
47758;SDS011;33520;55.122;35.582;2023-09-18T04:10:01;4.57;;;1.27;;
47758;SDS011;33520;55.122;35.582;2023-09-18T04:12:30;3.63;;;1.55;;
47758;SDS011;33520;55.122;35.582;2023-09-18T04:14:57;7.07;;;1.45;;
47758;SDS011;33520;55.122;35.582;2023-09-18T04:17:23;3.53;;;1.45;;
47758;SDS011;33520;55.122;35.582;2023-09-18T04:19:51;5.18;;;1.50;;
47758;SDS011;33520;55.122;35.582;2023-09-18T04:22:17;3.55;;;1.90;;
47758;SDS011;33520;55.122;35.582;2023-09-18T04:24:43;3.72;;;2.08;;
47758;SDS011;33520;55.122;35.582;2023-09-18T04:27:10;2.75;;;1.77;;
47758;SDS011;33520;55.122;35.582;2023-09-18T04:29:37;5.18;;;3.13;;
47758;SDS011;33520;55.122;35.582;2023-09-18T04:32:03;5.05;;;2.22;;
47758;SDS011;33520;55.122;35.582;2023-09-18T04:34:31;2.95;;;1.95;;
47758;SDS011;33520;55.122;35.582;2023-09-18T04:36:57;2.63;;;1.75;;
47758;SDS011;33520;55.122;35.582;2023-09-18T04:39:23;3.78;;;2.20;;
47758;SDS011;33520;55.122;35.582;2023-09-18T04:44:16;2.58;;;1.92;;
47758;SDS011;33520;55.122;35.582;2023-09-18T04:46:43;4.05;;;2.13;;
47758;SDS011;33520;55.122;35.582;2023-09-18T04:49:11;3.33;;;2.03;;
47758;SDS011;33520;55.122;35.582;2023-09-18T04:51:38;4.82;;;2.50;;
47758;SDS011;33520;55.122;35.582;2023-09-18T04:54:08;3.30;;;2.40;;
47758;SDS011;33520;55.122;35.582;2023-09-18T04:56:34;3.88;;;2.40;;
47758;SDS011;33520;55.122;35.582;2023-09-18T04:59:00;3.55;;;1.75;;
47758;SDS011;33520;55.122;35.582;2023-09-18T05:01:27;4.45;;;2.40;;
47758;SDS011;33520;55.122;35.582;2023-09-18T05:03:55;4.10;;;2.10;;
47758;SDS011;33520;55.122;35.582;2023-09-18T05:06:22;2.72;;;2.03;;
47758;SDS011;33520;55.122;35.582;2023-09-18T05:11:15;2.70;;;2.22;;
47758;SDS011;33520;55.122;35.582;2023-09-18T05:13:42;5.22;;;2.00;;
47758;SDS011;33520;55.122;35.582;2023-09-18T05:16:09;4.97;;;2.42;;
47758;SDS011;33520;55.122;35.582;2023-09-18T05:18:35;3.67;;;2.22;;
47758;SDS011;33520;55.122;35.582;2023-09-18T05:21:03;5.00;;;2.85;;
47758;SDS011;33520;55.122;35.582;2023-09-18T05:23:30;6.15;;;2.45;;
47758;SDS011;33520;55.122;35.582;2023-09-18T05:25:57;6.57;;;2.80;;
47758;SDS011;33520;55.122;35.582;2023-09-18T05:28:23;4.32;;;3.22;;
47758;SDS011;33520;55.122;35.582;2023-09-18T05:30:50;5.70;;;3.28;;
47758;SDS011;33520;55.122;35.582;2023-09-18T05:35:42;6.45;;;3.35;;
47758;SDS011;33520;55.122;35.582;2023-09-18T05:38:13;5.90;;;3.45;;
47758;SDS011;33520;55.122;35.582;2023-09-18T05:40:40;8.35;;;3.70;;
47758;SDS011;33520;55.122;35.582;2023-09-18T05:43:06;6.55;;;3.42;;
47758;SDS011;33520;55.122;35.582;2023-09-18T05:45:34;4.82;;;3.05;;
47758;SDS011;33520;55.122;35.582;2023-09-18T05:48:00;4.53;;;3.05;;
47758;SDS011;33520;55.122;35.582;2023-09-18T05:50:30;6.07;;;4.28;;
47758;SDS011;33520;55.122;35.582;2023-09-18T05:52:57;5.28;;;3.45;;
47758;SDS011;33520;55.122;35.582;2023-09-18T05:55:26;5.85;;;3.80;;
47758;SDS011;33520;55.122;35.582;2023-09-18T05:57:53;8.75;;;3.53;;
47758;SDS011;33520;55.122;35.582;2023-09-18T06:00:20;4.88;;;3.05;;
47758;SDS011;33520;55.122;35.582;2023-09-18T06:02:47;5.75;;;3.20;;
47758;SDS011;33520;55.122;35.582;2023-09-18T06:05:14;4.65;;;2.85;;
47758;SDS011;33520;55.122;35.582;2023-09-18T06:07:42;5.43;;;2.88;;
47758;SDS011;33520;55.122;35.582;2023-09-18T06:10:08;3.13;;;2.28;;
47758;SDS011;33520;55.122;35.582;2023-09-18T06:12:37;4.70;;;3.42;;
47758;SDS011;33520;55.122;35.582;2023-09-18T06:15:05;6.55;;;2.70;;
47758;SDS011;33520;55.122;35.582;2023-09-18T06:17:44;5.70;;;3.20;;
47758;SDS011;33520;55.122;35.582;2023-09-18T06:20:11;4.38;;;2.78;;
47758;SDS011;33520;55.122;35.582;2023-09-18T06:22:41;5.03;;;3.42;;
47758;SDS011;33520;55.122;35.582;2023-09-18T06:27:36;7.93;;;2.78;;
47758;SDS011;33520;55.122;35.582;2023-09-18T06:30:07;5.22;;;3.20;;
47758;SDS011;33520;55.122;35.582;2023-09-18T06:32:34;6.88;;;3.00;;
47758;SDS011;33520;55.122;35.582;2023-09-18T06:35:03;7.57;;;3.30;;
47758;SDS011;33520;55.122;35.582;2023-09-18T06:37:30;5.97;;;3.72;;
47758;SDS011;33520;55.122;35.582;2023-09-18T06:42:22;5.30;;;3.50;;
47758;SDS011;33520;55.122;35.582;2023-09-18T06:44:58;5.70;;;3.47;;
47758;SDS011;33520;55.122;35.582;2023-09-18T06:47:24;5.70;;;4.00;;
47758;SDS011;33520;55.122;35.582;2023-09-18T06:52:17;5.35;;;3.35;;
47758;SDS011;33520;55.122;35.582;2023-09-18T06:57:09;5.32;;;3.58;;
47758;SDS011;33520;55.122;35.582;2023-09-18T06:59:36;5.10;;;3.50;;
47758;SDS011;33520;55.122;35.582;2023-09-18T07:02:03;6.32;;;3.67;;
47758;SDS011;33520;55.122;35.582;2023-09-18T07:04:29;6.18;;;3.72;;
47758;SDS011;33520;55.122;35.582;2023-09-18T07:06:56;10.18;;;4.03;;
47758;SDS011;33520;55.122;35.582;2023-09-18T07:09:22;6.53;;;3.95;;
47758;SDS011;33520;55.122;35.582;2023-09-18T07:11:48;8.50;;;3.85;;
47758;SDS011;33520;55.122;35.582;2023-09-18T07:14:15;6.95;;;3.70;;
47758;SDS011;33520;55.122;35.582;2023-09-18T07:16:41;5.90;;;3.70;;
47758;SDS011;33520;55.122;35.582;2023-09-18T07:21:37;6.13;;;3.63;;
47758;SDS011;33520;55.122;35.582;2023-09-18T07:24:06;7.40;;;3.88;;
47758;SDS011;33520;55.122;35.582;2023-09-18T07:26:33;7.18;;;4.40;;
47758;SDS011;33520;55.122;35.582;2023-09-18T07:28:59;5.65;;;3.80;;
47758;SDS011;33520;55.122;35.582;2023-09-18T07:31:26;6.05;;;3.85;;
47758;SDS011;33520;55.122;35.582;2023-09-18T07:33:53;5.97;;;3.90;;
47758;SDS011;33520;55.122;35.582;2023-09-18T07:36:19;8.98;;;3.80;;
47758;SDS011;33520;55.122;35.582;2023-09-18T07:38:45;6.95;;;4.05;;
47758;SDS011;33520;55.122;35.582;2023-09-18T07:41:12;5.15;;;3.97;;
47758;SDS011;33520;55.122;35.582;2023-09-18T07:43:41;10.18;;;3.70;;
47758;SDS011;33520;55.122;35.582;2023-09-18T07:46:07;6.07;;;3.97;;
47758;SDS011;33520;55.122;35.582;2023-09-18T07:48:33;8.38;;;4.43;;
47758;SDS011;33520;55.122;35.582;2023-09-18T07:51:00;7.72;;;4.25;;
47758;SDS011;33520;55.122;35.582;2023-09-18T07:53:27;6.95;;;4.65;;
47758;SDS011;33520;55.122;35.582;2023-09-18T07:55:57;8.27;;;4.30;;
47758;SDS011;33520;55.122;35.582;2023-09-18T07:58:25;5.47;;;4.70;;
47758;SDS011;33520;55.122;35.582;2023-09-18T08:00:54;7.05;;;4.45;;
47758;SDS011;33520;55.122;35.582;2023-09-18T08:03:21;6.05;;;4.00;;
47758;SDS011;33520;55.122;35.582;2023-09-18T08:05:49;8.00;;;4.63;;
47758;SDS011;33520;55.122;35.582;2023-09-18T08:08:19;4.97;;;3.95;;
47758;SDS011;33520;55.122;35.582;2023-09-18T08:10:46;8.90;;;4.35;;
47758;SDS011;33520;55.122;35.582;2023-09-18T08:13:13;6.38;;;4.20;;
47758;SDS011;33520;55.122;35.582;2023-09-18T08:15:39;6.43;;;4.15;;
47758;SDS011;33520;55.122;35.582;2023-09-18T08:18:06;9.60;;;4.88;;
47758;SDS011;33520;55.122;35.582;2023-09-18T08:20:32;6.95;;;4.50;;
47758;SDS011;33520;55.122;35.582;2023-09-18T08:22:58;5.43;;;4.05;;
47758;SDS011;33520;55.122;35.582;2023-09-18T08:25:29;5.97;;;4.35;;
47758;SDS011;33520;55.122;35.582;2023-09-18T08:27:55;5.40;;;3.97;;
47758;SDS011;33520;55.122;35.582;2023-09-18T08:30:21;4.70;;;3.65;;
47758;SDS011;33520;55.122;35.582;2023-09-18T08:32:48;6.82;;;4.20;;
47758;SDS011;33520;55.122;35.582;2023-09-18T08:35:14;8.25;;;3.97;;
47758;SDS011;33520;55.122;35.582;2023-09-18T08:37:41;7.15;;;4.60;;
47758;SDS011;33520;55.122;35.582;2023-09-18T08:40:11;6.80;;;4.00;;
47758;SDS011;33520;55.122;35.582;2023-09-18T08:42:40;9.20;;;4.20;;
47758;SDS011;33520;55.122;35.582;2023-09-18T08:45:10;7.88;;;4.18;;
47758;SDS011;33520;55.122;35.582;2023-09-18T08:47:46;6.68;;;4.18;;
47758;SDS011;33520;55.122;35.582;2023-09-18T08:50:13;5.10;;;3.35;;
47758;SDS011;33520;55.122;35.582;2023-09-18T08:52:40;6.35;;;4.20;;
47758;SDS011;33520;55.122;35.582;2023-09-18T08:55:07;5.68;;;4.10;;
47758;SDS011;33520;55.122;35.582;2023-09-18T08:57:34;6.38;;;3.97;;
47758;SDS011;33520;55.122;35.582;2023-09-18T09:00:01;6.95;;;3.90;;
47758;SDS011;33520;55.122;35.582;2023-09-18T09:02:35;8.18;;;3.78;;
47758;SDS011;33520;55.122;35.582;2023-09-18T09:05:02;6.00;;;3.90;;
47758;SDS011;33520;55.122;35.582;2023-09-18T09:07:30;5.78;;;4.15;;
47758;SDS011;33520;55.122;35.582;2023-09-18T09:09:57;5.20;;;3.75;;
47758;SDS011;33520;55.122;35.582;2023-09-18T09:15:17;5.82;;;3.97;;
47758;SDS011;33520;55.122;35.582;2023-09-18T09:17:43;6.57;;;3.80;;
47758;SDS011;33520;55.122;35.582;2023-09-18T09:20:13;5.60;;;3.85;;
47758;SDS011;33520;55.122;35.582;2023-09-18T09:22:40;7.38;;;4.22;;
47758;SDS011;33520;55.122;35.582;2023-09-18T09:27:46;7.65;;;4.28;;
47758;SDS011;33520;55.122;35.582;2023-09-18T09:30:23;5.50;;;4.00;;
47758;SDS011;33520;55.122;35.582;2023-09-18T09:32:51;6.15;;;4.10;;
47758;SDS011;33520;55.122;35.582;2023-09-18T09:35:22;6.05;;;4.00;;
47758;SDS011;33520;55.122;35.582;2023-09-18T09:37:53;6.55;;;4.03;;
47758;SDS011;33520;55.122;35.582;2023-09-18T09:40:22;5.97;;;3.60;;
47758;SDS011;33520;55.122;35.582;2023-09-18T09:42:53;8.15;;;3.58;;
47758;SDS011;33520;55.122;35.582;2023-09-18T09:45:32;7.68;;;4.03;;
47758;SDS011;33520;55.122;35.582;2023-09-18T09:48:04;7.03;;;3.55;;
47758;SDS011;33520;55.122;35.582;2023-09-18T09:50:32;6.10;;;4.25;;
47758;SDS011;33520;55.122;35.582;2023-09-18T09:52:59;6.60;;;3.95;;
47758;SDS011;33520;55.122;35.582;2023-09-18T09:55:29;8.55;;;4.35;;
47758;SDS011;33520;55.122;35.582;2023-09-18T09:58:00;8.63;;;4.25;;
47758;SDS011;33520;55.122;35.582;2023-09-18T10:00:35;6.38;;;4.10;;
47758;SDS011;33520;55.122;35.582;2023-09-18T10:03:11;8.60;;;4.18;;
47758;SDS011;33520;55.122;35.582;2023-09-18T10:05:40;6.43;;;4.07;;
47758;SDS011;33520;55.122;35.582;2023-09-18T10:08:08;6.55;;;4.25;;
47758;SDS011;33520;55.122;35.582;2023-09-18T10:10:47;6.45;;;4.18;;
47758;SDS011;33520;55.122;35.582;2023-09-18T10:13:19;7.25;;;4.28;;
47758;SDS011;33520;55.122;35.582;2023-09-18T10:15:48;5.30;;;4.18;;
47758;SDS011;33520;55.122;35.582;2023-09-18T10:18:26;6.68;;;5.00;;
47758;SDS011;33520;55.122;35.582;2023-09-18T10:20:56;7.90;;;5.38;;
47758;SDS011;33520;55.122;35.582;2023-09-18T10:23:42;6.95;;;4.80;;
47758;SDS011;33520;55.122;35.582;2023-09-18T10:26:18;10.43;;;6.32;;
47758;SDS011;33520;55.122;35.582;2023-09-18T10:28:51;5.45;;;4.03;;
47758;SDS011;33520;55.122;35.582;2023-09-18T10:31:19;6.10;;;4.32;;
47758;SDS011;33520;55.122;35.582;2023-09-18T10:33:46;7.80;;;5.05;;
47758;SDS011;33520;55.122;35.582;2023-09-18T10:36:14;8.50;;;5.75;;
47758;SDS011;33520;55.122;35.582;2023-09-18T10:38:44;7.03;;;4.88;;
47758;SDS011;33520;55.122;35.582;2023-09-18T10:41:16;8.90;;;4.22;;
47758;SDS011;33520;55.122;35.582;2023-09-18T10:43:45;7.88;;;3.92;;
47758;SDS011;33520;55.122;35.582;2023-09-18T10:46:13;6.00;;;4.50;;
47758;SDS011;33520;55.122;35.582;2023-09-18T10:48:43;7.13;;;4.68;;
47758;SDS011;33520;55.122;35.582;2023-09-18T10:51:11;9.02;;;4.40;;
47758;SDS011;33520;55.122;35.582;2023-09-18T10:53:40;5.90;;;4.07;;
47758;SDS011;33520;55.122;35.582;2023-09-18T10:56:06;6.68;;;4.32;;
47758;SDS011;33520;55.122;35.582;2023-09-18T10:58:33;6.43;;;5.10;;
47758;SDS011;33520;55.122;35.582;2023-09-18T11:01:04;5.70;;;4.45;;
47758;SDS011;33520;55.122;35.582;2023-09-18T11:03:32;6.82;;;5.00;;
47758;SDS011;33520;55.122;35.582;2023-09-18T11:06:03;7.15;;;4.55;;
47758;SDS011;33520;55.122;35.582;2023-09-18T11:11:00;7.57;;;4.30;;
47758;SDS011;33520;55.122;35.582;2023-09-18T11:13:40;6.47;;;4.35;;
47758;SDS011;33520;55.122;35.582;2023-09-18T11:16:18;7.40;;;4.72;;
47758;SDS011;33520;55.122;35.582;2023-09-18T11:21:30;8.07;;;4.80;;
47758;SDS011;33520;55.122;35.582;2023-09-18T11:24:05;7.50;;;4.05;;
47758;SDS011;33520;55.122;35.582;2023-09-18T11:26:46;6.75;;;4.47;;
47758;SDS011;33520;55.122;35.582;2023-09-18T11:29:16;9.85;;;4.68;;
47758;SDS011;33520;55.122;35.582;2023-09-18T11:31:51;5.65;;;4.03;;
47758;SDS011;33520;55.122;35.582;2023-09-18T11:34:27;5.70;;;4.10;;
47758;SDS011;33520;55.122;35.582;2023-09-18T11:36:57;11.40;;;4.82;;
47758;SDS011;33520;55.122;35.582;2023-09-18T11:39:40;7.78;;;4.43;;
47758;SDS011;33520;55.122;35.582;2023-09-18T11:42:07;7.07;;;4.10;;
47758;SDS011;33520;55.122;35.582;2023-09-18T11:44:38;7.78;;;4.60;;
47758;SDS011;33520;55.122;35.582;2023-09-18T11:47:23;6.28;;;4.68;;
47758;SDS011;33520;55.122;35.582;2023-09-18T11:52:22;6.50;;;4.60;;
47758;SDS011;33520;55.122;35.582;2023-09-18T11:54:50;5.85;;;4.20;;
47758;SDS011;33520;55.122;35.582;2023-09-18T11:57:17;7.43;;;4.53;;
47758;SDS011;33520;55.122;35.582;2023-09-18T11:59:45;6.07;;;4.20;;
47758;SDS011;33520;55.122;35.582;2023-09-18T12:02:12;6.13;;;4.60;;
47758;SDS011;33520;55.122;35.582;2023-09-18T12:04:46;6.60;;;4.43;;
47758;SDS011;33520;55.122;35.582;2023-09-18T12:07:14;8.00;;;4.72;;
47758;SDS011;33520;55.122;35.582;2023-09-18T12:09:40;6.20;;;4.53;;
47758;SDS011;33520;55.122;35.582;2023-09-18T12:12:07;5.85;;;4.40;;
47758;SDS011;33520;55.122;35.582;2023-09-18T12:14:34;7.70;;;4.75;;
47758;SDS011;33520;55.122;35.582;2023-09-18T12:17:00;6.15;;;4.70;;
47758;SDS011;33520;55.122;35.582;2023-09-18T12:19:28;5.80;;;3.97;;
47758;SDS011;33520;55.122;35.582;2023-09-18T12:21:55;7.30;;;4.40;;
47758;SDS011;33520;55.122;35.582;2023-09-18T12:24:22;6.55;;;4.90;;
47758;SDS011;33520;55.122;35.582;2023-09-18T12:26:53;6.93;;;4.82;;
47758;SDS011;33520;55.122;35.582;2023-09-18T12:29:21;6.43;;;4.68;;
47758;SDS011;33520;55.122;35.582;2023-09-18T12:31:48;7.65;;;4.47;;
47758;SDS011;33520;55.122;35.582;2023-09-18T12:34:16;6.53;;;4.40;;
47758;SDS011;33520;55.122;35.582;2023-09-18T12:36:44;7.13;;;5.18;;
47758;SDS011;33520;55.122;35.582;2023-09-18T12:39:16;8.35;;;4.53;;
47758;SDS011;33520;55.122;35.582;2023-09-18T12:41:43;8.38;;;4.60;;
47758;SDS011;33520;55.122;35.582;2023-09-18T12:44:10;9.60;;;4.60;;
47758;SDS011;33520;55.122;35.582;2023-09-18T12:46:40;6.55;;;4.95;;
47758;SDS011;33520;55.122;35.582;2023-09-18T12:49:16;6.60;;;4.70;;
47758;SDS011;33520;55.122;35.582;2023-09-18T12:52:21;6.70;;;4.53;;
47758;SDS011;33520;55.122;35.582;2023-09-18T12:54:40;6.45;;;4.78;;
47758;SDS011;33520;55.122;35.582;2023-09-18T12:57:20;6.13;;;4.05;;
47758;SDS011;33520;55.122;35.582;2023-09-18T12:59:46;9.93;;;4.80;;
47758;SDS011;33520;55.122;35.582;2023-09-18T13:02:17;5.55;;;3.97;;
47758;SDS011;33520;55.122;35.582;2023-09-18T13:04:52;7.03;;;4.65;;
47758;SDS011;33520;55.122;35.582;2023-09-18T13:07:23;6.82;;;4.22;;
47758;SDS011;33520;55.122;35.582;2023-09-18T13:12:51;6.55;;;4.63;;
47758;SDS011;33520;55.122;35.582;2023-09-18T13:15:24;7.68;;;4.90;;
47758;SDS011;33520;55.122;35.582;2023-09-18T13:17:55;7.97;;;5.07;;
47758;SDS011;33520;55.122;35.582;2023-09-18T13:20:24;8.65;;;4.97;;
47758;SDS011;33520;55.122;35.582;2023-09-18T13:22:58;7.95;;;4.75;;
47758;SDS011;33520;55.122;35.582;2023-09-18T13:25:30;7.50;;;4.47;;
47758;SDS011;33520;55.122;35.582;2023-09-18T13:28:02;8.13;;;4.88;;
47758;SDS011;33520;55.122;35.582;2023-09-18T13:30:30;6.10;;;4.30;;
47758;SDS011;33520;55.122;35.582;2023-09-18T13:33:03;6.88;;;5.07;;
47758;SDS011;33520;55.122;35.582;2023-09-18T13:35:41;8.30;;;4.65;;
47758;SDS011;33520;55.122;35.582;2023-09-18T13:38:09;6.07;;;4.50;;
47758;SDS011;33520;55.122;35.582;2023-09-18T13:40:43;7.68;;;4.70;;
47758;SDS011;33520;55.122;35.582;2023-09-18T13:43:12;7.57;;;4.80;;
47758;SDS011;33520;55.122;35.582;2023-09-18T13:45:41;6.15;;;4.30;;
47758;SDS011;33520;55.122;35.582;2023-09-18T13:48:07;8.38;;;4.80;;
47758;SDS011;33520;55.122;35.582;2023-09-18T13:50:34;7.20;;;4.30;;
47758;SDS011;33520;55.122;35.582;2023-09-18T13:53:02;7.63;;;4.80;;
47758;SDS011;33520;55.122;35.582;2023-09-18T13:55:32;6.53;;;4.70;;
47758;SDS011;33520;55.122;35.582;2023-09-18T13:57:59;6.47;;;4.60;;
47758;SDS011;33520;55.122;35.582;2023-09-18T14:00:29;6.97;;;4.50;;
47758;SDS011;33520;55.122;35.582;2023-09-18T14:02:55;6.03;;;4.38;;
47758;SDS011;33520;55.122;35.582;2023-09-18T14:05:21;7.15;;;4.50;;
47758;SDS011;33520;55.122;35.582;2023-09-18T14:10:14;5.97;;;4.43;;
47758;SDS011;33520;55.122;35.582;2023-09-18T14:12:41;6.55;;;4.80;;
47758;SDS011;33520;55.122;35.582;2023-09-18T14:15:09;6.43;;;3.95;;
47758;SDS011;33520;55.122;35.582;2023-09-18T14:17:36;5.72;;;4.43;;
47758;SDS011;33520;55.122;35.582;2023-09-18T14:20:04;6.38;;;4.75;;
47758;SDS011;33520;55.122;35.582;2023-09-18T14:22:35;7.47;;;4.78;;
47758;SDS011;33520;55.122;35.582;2023-09-18T14:25:02;6.75;;;4.55;;
47758;SDS011;33520;55.122;35.582;2023-09-18T14:27:31;9.75;;;4.88;;
47758;SDS011;33520;55.122;35.582;2023-09-18T14:29:58;5.68;;;4.53;;
47758;SDS011;33520;55.122;35.582;2023-09-18T14:32:24;6.80;;;4.32;;
47758;SDS011;33520;55.122;35.582;2023-09-18T14:34:52;7.45;;;4.82;;
47758;SDS011;33520;55.122;35.582;2023-09-18T14:37:18;8.40;;;4.72;;
47758;SDS011;33520;55.122;35.582;2023-09-18T14:44:38;7.90;;;4.73;;
47758;SDS011;33520;55.122;35.582;2023-09-18T14:47:10;7.57;;;5.25;;
47758;SDS011;33520;55.122;35.582;2023-09-18T14:49:38;7.03;;;4.75;;
47758;SDS011;33520;55.122;35.582;2023-09-18T14:52:05;8.70;;;5.63;;
47758;SDS011;33520;55.122;35.582;2023-09-18T14:54:32;7.47;;;5.00;;
47758;SDS011;33520;55.122;35.582;2023-09-18T14:56:58;7.78;;;4.80;;
47758;SDS011;33520;55.122;35.582;2023-09-18T14:59:24;7.70;;;5.07;;
47758;SDS011;33520;55.122;35.582;2023-09-18T15:01:51;8.20;;;4.75;;
47758;SDS011;33520;55.122;35.582;2023-09-18T15:06:43;8.75;;;5.30;;
47758;SDS011;33520;55.122;35.582;2023-09-18T15:11:35;7.00;;;4.45;;
47758;SDS011;33520;55.122;35.582;2023-09-18T15:16:28;9.93;;;5.55;;
47758;SDS011;33520;55.122;35.582;2023-09-18T15:18:56;8.40;;;4.45;;
47758;SDS011;33520;55.122;35.582;2023-09-18T15:21:27;7.38;;;5.20;;
47758;SDS011;33520;55.122;35.582;2023-09-18T15:26:20;9.25;;;5.43;;
47758;SDS011;33520;55.122;35.582;2023-09-18T15:28:46;6.85;;;5.40;;
47758;SDS011;33520;55.122;35.582;2023-09-18T15:31:13;8.57;;;5.55;;
47758;SDS011;33520;55.122;35.582;2023-09-18T15:33:39;17.00;;;5.53;;
47758;SDS011;33520;55.122;35.582;2023-09-18T15:36:07;9.30;;;5.40;;
47758;SDS011;33520;55.122;35.582;2023-09-18T15:38:33;7.75;;;4.70;;
47758;SDS011;33520;55.122;35.582;2023-09-18T15:43:25;9.07;;;5.18;;
47758;SDS011;33520;55.122;35.582;2023-09-18T15:45:53;7.13;;;4.93;;
47758;SDS011;33520;55.122;35.582;2023-09-18T15:48:19;8.43;;;5.40;;
47758;SDS011;33520;55.122;35.582;2023-09-18T15:53:12;8.38;;;5.45;;
47758;SDS011;33520;55.122;35.582;2023-09-18T15:55:39;7.22;;;5.07;;